Time;durP1;ratioP1;P1;durP2;ratioP2;P2;SDS_P1;SDS_P2;PMS_P1;PMS_P2;Temp;Humidity;BMP_temperature;BMP_pressure;BME280_temperature;BME280_humidity;BME280_pressure;Samples;Min_cycle;Max_cycle;Signal;HPM_P1;HPM_P2
2023/02/08 00:01:36;;;;;;;;;;;;;;;-6.65;67.49;102304.78;4983105;28;19937;-67
2023/02/08 00:04:02;;;;;;;;;;;;;;;-6.68;67.63;102302.34;4966175;28;19937;-67
2023/02/08 00:06:29;;;;;;;;;;;;;;;-6.66;67.78;102297.75;4982820;28;19934;-67
2023/02/08 00:08:56;;;;;;;;;;;;;;;-6.63;67.68;102302.91;4982700;28;19952;-66
2023/02/08 00:11:22;;;;;;;;;;;;;;;-6.53;67.55;102295.19;4984860;28;19933;-66
2023/02/08 00:13:48;;;;;;;;;;;;;;;-6.56;67.16;102300.66;4984111;28;19987;-66
2023/02/08 00:16:14;;;;;;;;;;;;;;;-6.59;67.13;102303.53;4966871;28;19929;-66
2023/02/08 00:18:39;;;;;;;;;;;;;;;-6.57;67.19;102302.50;4985146;28;19955;-65
2023/02/08 00:21:08;;;;;;;;;;;;;;;-6.58;67.02;102300.78;4982717;28;20317;-66
2023/02/08 00:23:34;;;;;;;;;;;;;;;-6.72;67.22;102293.69;4983638;28;19929;-66
2023/02/08 00:26:01;;;;;;;;;;;;;;;-6.72;67.41;102295.50;4984137;28;19981;-66
2023/02/08 00:28:27;;;;;;;;;;;;;;;-6.70;67.26;102290.94;4981925;28;19957;-66
2023/02/08 00:30:53;;;;;;;;;;;;;;;-6.74;67.40;102286.78;4982728;28;20400;-67
2023/02/08 00:33:18;;;;;;;;;;;;;;;-6.72;67.56;102288.38;4983309;28;20377;-66
2023/02/08 00:35:44;;;;;;;;;;;;;;;-6.72;67.31;102282.22;4984518;28;19937;-66
2023/02/08 00:38:10;;;;;;;;;;;;;;;-6.68;67.03;102285.53;4982936;28;20377;-67
2023/02/08 00:40:36;;;;;;;;;;;;;;;-6.68;66.97;102275.72;4966619;28;19930;-66
2023/02/08 00:43:04;;;;;;;;;;;;;;;-6.66;67.15;102271.16;4981116;28;19940;-66
2023/02/08 00:45:29;;;;;;;;;;;;;;;-6.57;67.21;102267.88;4984777;28;19976;-66
2023/02/08 00:47:55;;;;;;;;;;;;;;;-6.51;66.86;102263.97;4983436;28;19936;-66
2023/02/08 00:50:21;;;;;;;;;;;;;;;-6.48;66.95;102271.75;4983823;28;19933;-67
2023/02/08 00:52:47;;;;;;;;;;;;;;;-6.50;66.57;102270.13;4963648;28;20004;-66
2023/02/08 00:55:13;;;;;;;;;;;;;;;-6.58;66.69;102275.97;4984025;28;20549;-66
2023/02/08 00:57:39;;;;;;;;;;;;;;;-6.64;66.85;102284.38;4982334;28;19969;-66
2023/02/08 01:00:07;;;;;;;;;;;;;;;-6.59;67.05;102280.44;4965873;28;20044;-66
2023/02/08 01:02:37;;;;;;;;;;;;;;;-6.50;66.81;102271.00;4982418;28;19930;-66
2023/02/08 01:05:03;;;;;;;;;;;;;;;-6.44;66.90;102281.22;4964606;28;19937;-66
2023/02/08 01:07:28;;;;;;;;;;;;;;;-6.45;66.37;102286.69;4981801;28;19929;-66
2023/02/08 01:09:55;;;;;;;;;;;;;;;-6.55;66.50;102281.13;4965077;28;19929;-66
2023/02/08 01:12:21;;;;;;;;;;;;;;;-6.65;66.75;102275.50;4964382;28;19945;-66
2023/02/08 01:14:47;;;;;;;;;;;;;;;-6.87;67.22;102278.72;4964261;28;19930;-66
2023/02/08 01:17:14;;;;;;;;;;;;;;;-7.04;68.32;102279.81;4964950;28;19930;-66
2023/02/08 01:19:40;;;;;;;;;;;;;;;-7.13;68.60;102275.94;4979217;28;19941;-66
2023/02/08 01:22:06;;;;;;;;;;;;;;;-7.13;69.10;102276.78;4983446;28;19934;-66
2023/02/08 01:24:31;;;;;;;;;;;;;;;-7.15;69.10;102283.16;4983251;28;19937;-66
2023/02/08 01:26:57;;;;;;;;;;;;;;;-7.14;69.34;102288.38;4979659;28;20029;-66
2023/02/08 01:29:23;;;;;;;;;;;;;;;-7.11;69.06;102279.34;4964229;28;19930;-66
2023/02/08 01:31:49;;;;;;;;;;;;;;;-7.07;69.36;102270.22;4965725;28;19930;-66
2023/02/08 01:34:16;;;;;;;;;;;;;;;-7.04;69.16;102270.03;4965171;28;19929;-66
2023/02/08 01:36:42;;;;;;;;;;;;;;;-7.10;69.02;102275.75;4968074;28;19930;-66
2023/02/08 01:39:09;;;;;;;;;;;;;;;-7.17;69.25;102280.59;4969104;28;19934;-66
2023/02/08 01:41:37;;;;;;;;;;;;;;;-7.23;69.41;102282.78;4966947;28;19979;-66
2023/02/08 01:44:04;;;;;;;;;;;;;;;-7.16;69.23;102276.97;4984884;28;19944;-66
2023/02/08 01:46:31;;;;;;;;;;;;;;;-7.08;69.01;102267.69;4976125;28;19984;-66
2023/02/08 01:48:58;;;;;;;;;;;;;;;-7.02;68.91;102278.78;4987661;28;20024;-66
2023/02/08 01:51:28;;;;;;;;;;;;;;;-6.95;68.52;102291.69;4966047;28;19984;-66
2023/02/08 01:53:55;;;;;;;;;;;;;;;-7.03;68.65;102284.19;4985449;28;19930;-66
2023/02/08 01:56:24;;;;;;;;;;;;;;;-7.00;68.87;102276.00;4985817;28;19930;-66
2023/02/08 01:58:51;;;;;;;;;;;;;;;-6.90;68.86;102282.44;4965980;28;20106;-66
2023/02/08 02:01:17;;;;;;;;;;;;;;;-6.84;68.66;102281.19;4968949;28;19929;-66
2023/02/08 02:03:43;;;;;;;;;;;;;;;-6.84;68.11;102283.88;4984775;28;19930;-67
2023/02/08 02:06:10;;;;;;;;;;;;;;;-7.03;67.98;102271.72;4969973;28;19930;-66
2023/02/08 02:08:41;;;;;;;;;;;;;;;-7.12;68.39;102277.66;4985484;28;19933;-66
2023/02/08 02:11:07;;;;;;;;;;;;;;;-7.15;68.67;102277.84;4967086;28;20371;-66
2023/02/08 02:13:35;;;;;;;;;;;;;;;-7.13;68.89;102271.47;4969097;28;20384;-66
2023/02/08 02:16:01;;;;;;;;;;;;;;;-7.13;68.83;102260.81;4968806;28;20024;-66
2023/02/08 02:18:30;;;;;;;;;;;;;;;-7.18;68.86;102267.38;4968026;28;19929;-66
2023/02/08 02:21:09;;;;;;;;;;;;;;;-7.20;68.95;102266.63;4985734;28;20396;-66
2023/02/08 02:23:50;;;;;;;;;;;;;;;-7.21;69.04;102265.78;4985502;28;20029;-66
2023/02/08 02:26:36;;;;;;;;;;;;;;;-7.27;68.87;102266.16;4982856;28;20019;-66
2023/02/08 02:29:24;;;;;;;;;;;;;;;-7.32;69.46;102273.59;4968032;28;19930;-66
2023/02/08 02:32:04;;;;;;;;;;;;;;;-7.36;69.43;102275.56;4966897;28;19948;-66
2023/02/08 02:34:33;;;;;;;;;;;;;;;-7.37;69.56;102279.19;4983609;28;19937;-66
2023/02/08 02:37:02;;;;;;;;;;;;;;;-7.34;69.66;102272.84;4984553;28;19930;-66
2023/02/08 02:39:32;;;;;;;;;;;;;;;-7.33;69.74;102272.75;4967387;28;19929;-66
2023/02/08 02:44:53;;;;;;;;;;;;;;;-7.20;69.11;102269.28;4984222;28;19937;-66
2023/02/08 02:47:24;;;;;;;;;;;;;;;-7.14;69.14;102268.91;4983553;28;19956;-66
2023/02/08 02:49:52;;;;;;;;;;;;;;;-7.04;68.80;102278.00;4968164;28;20309;-66
2023/02/08 02:52:22;;;;;;;;;;;;;;;-6.92;68.41;102272.84;4985286;28;19929;-66
2023/02/08 02:54:49;;;;;;;;;;;;;;;-6.81;68.09;102277.47;4984894;28;19962;-66
2023/02/08 02:57:16;;;;;;;;;;;;;;;-6.68;67.76;102274.88;4986265;28;19930;-66
2023/02/08 02:59:44;;;;;;;;;;;;;;;-6.65;67.61;102280.00;4983542;28;20016;-66
2023/02/08 03:02:10;;;;;;;;;;;;;;;-6.61;67.36;102271.72;4981100;28;20430;-66
2023/02/08 03:05:00;;;;;;;;;;;;;;;-6.59;67.45;102274.25;4984328;28;20032;-66
2023/02/08 03:07:47;;;;;;;;;;;;;;;-6.62;67.31;102287.78;4967755;28;19930;-66
2023/02/08 03:10:34;;;;;;;;;;;;;;;-6.75;67.66;102293.91;4985442;28;19929;-66
2023/02/08 03:13:03;;;;;;;;;;;;;;;-6.76;67.78;102283.38;4979644;28;19934;-66
2023/02/08 03:15:36;;;;;;;;;;;;;;;-6.66;67.59;102283.63;4986782;28;19934;-66
2023/02/08 03:18:04;;;;;;;;;;;;;;;-6.70;67.10;102288.28;4984325;28;19937;-67
2023/02/08 03:20:32;;;;;;;;;;;;;;;-6.81;67.44;102281.00;4983243;28;19929;-66
2023/02/08 03:23:02;;;;;;;;;;;;;;;-7.00;67.69;102278.66;4964788;28;19929;-66
2023/02/08 03:25:31;;;;;;;;;;;;;;;-7.18;68.10;102273.56;4983823;28;19956;-66
2023/02/08 03:28:00;;;;;;;;;;;;;;;-7.29;68.53;102271.59;4982943;28;19980;-66
2023/02/08 03:30:29;;;;;;;;;;;;;;;-7.30;68.85;102274.34;4984134;28;19934;-66
2023/02/08 03:32:59;;;;;;;;;;;;;;;-7.19;68.76;102263.88;4983827;28;19984;-66
2023/02/08 03:35:27;;;;;;;;;;;;;;;-7.11;68.56;102260.75;4985897;28;19929;-66
2023/02/08 03:37:54;;;;;;;;;;;;;;;-7.05;68.51;102227.56;4983041;28;20334;-66
2023/02/08 03:40:24;;;;;;;;;;;;;;;-6.82;67.98;102249.16;4984440;28;19937;-66
2023/02/08 03:42:51;;;;;;;;;;;;;;;-6.74;67.90;102246.84;4966540;28;19934;-66
2023/02/08 03:45:20;;;;;;;;;;;;;;;-6.74;68.19;102233.56;4984733;28;19981;-67
2023/02/08 03:47:48;;;;;;;;;;;;;;;-6.61;67.69;102223.81;4982798;28;19937;-66
2023/02/08 03:50:16;;;;;;;;;;;;;;;-6.54;67.50;102224.25;4966746;28;19936;-66
2023/02/08 03:52:43;;;;;;;;;;;;;;;-6.52;67.73;102221.47;4965523;28;19929;-66
2023/02/08 03:55:11;;;;;;;;;;;;;;;-6.43;67.72;102232.34;4986031;28;19976;-66
2023/02/08 03:57:42;;;;;;;;;;;;;;;-6.42;67.38;102231.38;4983474;28;20290;-66
2023/02/08 04:00:10;;;;;;;;;;;;;;;-6.41;67.21;102225.09;4967801;28;19964;-66
2023/02/08 04:02:41;;;;;;;;;;;;;;;-6.42;67.65;102226.06;4985591;28;19934;-66
2023/02/08 04:05:07;;;;;;;;;;;;;;;-6.44;67.75;102221.81;4964459;28;20001;-66
2023/02/08 04:07:33;;;;;;;;;;;;;;;-6.41;67.88;102219.78;4964994;28;19934;-66
2023/02/08 04:09:59;;;;;;;;;;;;;;;-6.34;67.91;102209.56;4982188;28;20317;-67
2023/02/08 04:12:24;;;;;;;;;;;;;;;-6.32;67.75;102212.13;4984600;28;19930;-67
2023/02/08 04:14:52;;;;;;;;;;;;;;;-6.28;67.73;102205.63;4966480;28;20377;-66
2023/02/08 04:17:17;;;;;;;;;;;;;;;-6.22;67.70;102205.22;4966248;28;20400;-65
2023/02/08 04:19:43;;;;;;;;;;;;;;;-6.18;67.40;102203.19;4982802;28;19992;-66
2023/02/08 04:22:09;;;;;;;;;;;;;;;-6.22;67.87;102199.03;4984117;28;19936;-66
2023/02/08 04:24:34;;;;;;;;;;;;;;;-6.17;67.87;102199.56;4983778;28;20347;-66
2023/02/08 04:27:01;;;;;;;;;;;;;;;-6.13;67.71;102204.59;4981068;28;19929;-66
2023/02/08 04:29:27;;;;;;;;;;;;;;;-6.16;68.17;102204.81;4982298;28;19980;-66
2023/02/08 04:31:54;;;;;;;;;;;;;;;-6.10;67.94;102210.66;4982265;28;19991;-66
2023/02/08 04:34:20;;;;;;;;;;;;;;;-6.05;67.78;102213.88;4983216;28;20032;-66
2023/02/08 04:36:46;;;;;;;;;;;;;;;-6.02;67.63;102211.81;4985041;28;20392;-66
2023/02/08 04:39:12;;;;;;;;;;;;;;;-6.00;67.91;102211.69;4966494;28;20393;-66
2023/02/08 04:41:37;;;;;;;;;;;;;;;-6.06;68.04;102213.00;4983795;28;19984;-67
2023/02/08 04:44:03;;;;;;;;;;;;;;;-6.09;68.22;102209.69;4968562;28;19969;-66
2023/02/08 04:46:29;;;;;;;;;;;;;;;-6.08;68.47;102203.44;4982807;28;20114;-66
2023/02/08 04:48:56;;;;;;;;;;;;;;;-6.05;68.18;102196.06;4983367;28;19929;-66
2023/02/08 04:51:22;;;;;;;;;;;;;;;-6.02;68.31;102195.00;4635277;28;9999817;-66
2023/02/08 04:53:47;;;;;;;;;;;;;;;-5.98;68.48;102197.31;4979222;28;20372;-67
2023/02/08 04:56:13;;;;;;;;;;;;;;;-5.96;68.27;102196.38;4979772;28;19929;-66
2023/02/08 04:58:39;;;;;;;;;;;;;;;-5.99;68.32;102192.09;4963400;28;19957;-66
2023/02/08 05:01:06;;;;;;;;;;;;;;;-6.02;68.40;102195.84;4980604;28;19936;-66
2023/02/08 05:03:31;;;;;;;;;;;;;;;-6.00;68.56;102188.59;4977065;28;19930;-66
2023/02/08 05:05:59;;;;;;;;;;;;;;;-5.99;68.61;102195.63;4981572;28;19934;-66
2023/02/08 05:08:25;;;;;;;;;;;;;;;-5.98;68.58;102193.78;4976545;28;19965;-67
2023/02/08 05:10:51;;;;;;;;;;;;;;;-5.90;68.58;102188.78;4982453;28;19929;-66
2023/02/08 05:13:17;;;;;;;;;;;;;;;-5.85;68.56;102188.47;4987567;28;19930;-66
2023/02/08 05:15:42;;;;;;;;;;;;;;;-5.94;68.78;102181.94;4990641;28;19936;-67
2023/02/08 05:18:08;;;;;;;;;;;;;;;-5.91;68.97;102195.09;4971884;28;19930;-66
2023/02/08 05:20:34;;;;;;;;;;;;;;;-5.87;68.92;102180.56;4987392;28;20035;-66
2023/02/08 05:23:01;;;;;;;;;;;;;;;-5.82;68.99;102185.59;4992571;28;19930;-67
2023/02/08 05:25:26;;;;;;;;;;;;;;;-5.82;69.04;102169.59;4986960;28;19936;-66
2023/02/08 05:27:52;;;;;;;;;;;;;;;-5.88;69.28;102170.00;4976103;28;19929;-67
2023/02/08 05:30:18;;;;;;;;;;;;;;;-5.94;69.21;102160.63;4970626;28;20468;-66
2023/02/08 05:32:44;;;;;;;;;;;;;;;-5.73;69.19;102176.91;4972199;28;19929;-67
2023/02/08 05:35:10;;;;;;;;;;;;;;;-5.68;69.16;102173.94;4975394;28;20385;-67
2023/02/08 05:37:35;;;;;;;;;;;;;;;-5.69;69.12;102180.22;4954906;28;20311;-66
2023/02/08 05:40:03;;;;;;;;;;;;;;;-5.66;69.16;102180.00;4980155;28;19968;-67
2023/02/08 05:42:29;;;;;;;;;;;;;;;-5.55;69.09;102185.44;4986053;28;19988;-67
2023/02/08 05:44:55;;;;;;;;;;;;;;;-5.60;68.88;102190.25;4978118;28;20393;-66
2023/02/08 05:47:20;;;;;;;;;;;;;;;-5.56;68.94;102202.41;4991654;28;20032;-65
2023/02/08 05:49:46;;;;;;;;;;;;;;;-5.55;68.95;102188.09;4990914;28;20345;-67
2023/02/08 05:52:12;;;;;;;;;;;;;;;-5.46;69.07;102189.25;4988563;28;19930;-67
2023/02/08 05:54:38;;;;;;;;;;;;;;;-5.36;68.86;102176.09;4989477;28;20397;-67
2023/02/08 05:57:05;;;;;;;;;;;;;;;-5.35;68.45;102184.97;4989553;28;19937;-67
2023/02/08 05:59:33;;;;;;;;;;;;;;;-5.40;68.59;102177.28;4987400;28;20281;-67
2023/02/08 06:02:00;;;;;;;;;;;;;;;-5.37;68.66;102177.06;4991472;28;20471;-67
2023/02/08 06:04:26;;;;;;;;;;;;;;;-5.38;68.63;102175.34;4988671;28;19929;-66
2023/02/08 06:06:55;;;;;;;;;;;;;;;-5.37;68.89;102171.72;4990395;28;20048;-67
2023/02/08 06:09:20;;;;;;;;;;;;;;;-5.38;68.55;102163.84;4972772;28;19989;-66
2023/02/08 06:11:46;;;;;;;;;;;;;;;-5.49;68.84;102162.81;4968884;28;19929;-66
2023/02/08 06:14:13;;;;;;;;;;;;;;;-5.49;68.93;102164.59;4986326;28;19930;-66
2023/02/08 06:16:39;;;;;;;;;;;;;;;-5.49;69.19;102169.94;4973272;28;20320;-66
2023/02/08 06:19:05;;;;;;;;;;;;;;;-5.53;68.91;102173.78;4987530;28;19939;-66
2023/02/08 06:21:31;;;;;;;;;;;;;;;-5.51;69.15;102174.53;4968701;28;19930;-66
2023/02/08 06:23:56;;;;;;;;;;;;;;;-5.49;68.74;102172.59;4988547;28;20028;-67
2023/02/08 06:26:22;;;;;;;;;;;;;;;-5.55;68.85;102169.44;4990744;28;19930;-67
2023/02/08 06:28:48;;;;;;;;;;;;;;;-5.58;69.10;102166.13;4987871;28;20341;-67
2023/02/08 06:31:15;;;;;;;;;;;;;;;-5.60;69.11;102171.59;4988975;28;19930;-67
2023/02/08 06:33:41;;;;;;;;;;;;;;;-5.63;69.15;102166.44;4986488;28;19936;-66
2023/02/08 06:36:07;;;;;;;;;;;;;;;-5.52;69.31;102159.50;4986925;28;19930;-66
2023/02/08 06:38:32;;;;;;;;;;;;;;;-5.38;69.10;102161.19;4987637;28;19951;-66
2023/02/08 06:40:58;;;;;;;;;;;;;;;-5.39;68.67;102141.66;4952334;28;20460;-67
2023/02/08 06:43:24;;;;;;;;;;;;;;;-5.51;68.42;102129.22;4987699;28;20405;-66
2023/02/08 06:45:50;;;;;;;;;;;;;;;-5.43;68.67;102143.69;4967232;28;20037;-66
2023/02/08 06:48:17;;;;;;;;;;;;;;;-5.45;68.98;102150.94;4986592;28;19929;-66
2023/02/08 06:50:42;;;;;;;;;;;;;;;-5.45;68.84;102144.78;4988270;28;19929;-66
2023/02/08 06:53:08;;;;;;;;;;;;;;;-5.46;68.73;102146.56;4989109;28;19936;-66
2023/02/08 06:55:34;;;;;;;;;;;;;;;-5.39;68.74;102149.66;4988829;28;19936;-67
2023/02/08 06:58:00;;;;;;;;;;;;;;;-5.30;68.60;102145.47;4969701;28;19957;-66
2023/02/08 07:00:25;;;;;;;;;;;;;;;-5.22;68.40;102136.88;4987621;28;20166;-66
2023/02/08 07:02:51;;;;;;;;;;;;;;;-5.16;67.88;102141.75;4969742;28;19984;-66
2023/02/08 07:05:18;;;;;;;;;;;;;;;-5.13;67.65;102144.22;4986674;28;19936;-66
2023/02/08 07:07:44;;;;;;;;;;;;;;;-5.13;67.74;102141.56;4971391;28;20069;-66
2023/02/08 07:10:10;;;;;;;;;;;;;;;-5.11;67.64;102142.28;4986211;28;20433;-65
2023/02/08 07:12:36;;;;;;;;;;;;;;;-5.12;67.59;102132.59;4984429;28;20384;-66
2023/02/08 07:15:02;;;;;;;;;;;;;;;-5.07;67.47;102135.75;4988189;28;19937;-66
2023/02/08 07:17:28;;;;;;;;;;;;;;;-5.03;67.22;102129.22;4963877;28;19940;-66
2023/02/08 07:19:54;;;;;;;;;;;;;;;-4.99;67.19;102132.50;4977320;28;19930;-66
2023/02/08 07:22:21;;;;;;;;;;;;;;;-4.93;66.83;102129.38;4983101;28;20373;-66
2023/02/08 07:24:47;;;;;;;;;;;;;;;-4.99;67.12;102137.84;4968403;28;19972;-67
2023/02/08 07:27:13;;;;;;;;;;;;;;;-4.97;67.22;102132.41;4970257;28;19930;-67
2023/02/08 07:29:39;;;;;;;;;;;;;;;-4.93;66.94;102140.03;4987080;28;19934;-67
2023/02/08 07:32:05;;;;;;;;;;;;;;;-4.92;66.73;102140.91;4984624;28;19937;-67
2023/02/08 07:34:31;;;;;;;;;;;;;;;-4.87;66.91;102136.06;4986673;28;19969;-67
2023/02/08 07:36:57;;;;;;;;;;;;;;;-4.82;66.63;102135.72;4986715;28;20437;-65
2023/02/08 07:39:25;;;;;;;;;;;;;;;-4.79;66.75;102138.16;4986383;28;20496;-66
2023/02/08 07:41:51;;;;;;;;;;;;;;;-4.67;66.64;102128.38;4987109;28;20025;-66
2023/02/08 07:44:16;;;;;;;;;;;;;;;-4.64;66.37;102128.16;4985934;28;20350;-66
2023/02/08 07:46:42;;;;;;;;;;;;;;;-4.61;66.41;102131.41;4966668;28;19930;-66
2023/02/08 07:49:09;;;;;;;;;;;;;;;-4.58;66.16;102131.19;4984141;28;19966;-66
2023/02/08 07:51:34;;;;;;;;;;;;;;;-4.65;66.11;102127.28;4969103;28;19937;-66
2023/02/08 07:54:00;;;;;;;;;;;;;;;-4.62;66.14;102128.88;4985321;28;19930;-66
2023/02/08 07:56:27;;;;;;;;;;;;;;;-4.65;66.45;102113.94;4969682;28;20304;-66
2023/02/08 07:58:53;;;;;;;;;;;;;;;-4.60;66.47;102117.13;4989000;28;20289;-66
2023/02/08 08:01:19;;;;;;;;;;;;;;;-4.65;66.36;102118.44;4964672;28;19937;-65
2023/02/08 08:03:45;;;;;;;;;;;;;;;-4.71;66.58;102114.41;4967359;28;19937;-65
2023/02/08 08:06:10;;;;;;;;;;;;;;;-4.81;67.09;102106.25;4980740;28;19996;-65
2023/02/08 08:08:36;;;;;;;;;;;;;;;-4.75;67.11;102116.47;4964851;28;19942;-66
2023/02/08 08:11:02;;;;;;;;;;;;;;;-4.72;67.02;102115.38;4966444;28;20530;-66
2023/02/08 08:13:29;;;;;;;;;;;;;;;-4.66;66.85;102114.06;4965306;28;20325;-66
2023/02/08 08:15:55;;;;;;;;;;;;;;;-4.72;67.22;102121.56;4965213;28;20620;-66
2023/02/08 08:18:20;;;;;;;;;;;;;;;-4.72;67.14;102102.88;4967485;28;19930;-66
2023/02/08 08:20:46;;;;;;;;;;;;;;;-4.72;67.44;102102.88;4963185;28;19984;-68
2023/02/08 08:23:12;;;;;;;;;;;;;;;-4.71;67.27;102106.41;4964949;28;19930;-67
2023/02/08 08:25:37;;;;;;;;;;;;;;;-4.70;67.44;102103.59;4966906;28;19934;-67
2023/02/08 08:28:03;;;;;;;;;;;;;;;-4.69;67.49;102093.78;4962539;28;20597;-67
2023/02/08 08:30:30;;;;;;;;;;;;;;;-4.68;67.48;102094.63;4966807;28;19930;-66
2023/02/08 08:32:56;;;;;;;;;;;;;;;-4.77;67.76;102094.38;4964756;28;19937;-66
2023/02/08 08:35:22;;;;;;;;;;;;;;;-4.76;67.65;102085.38;4967782;28;19930;-67
2023/02/08 08:37:48;;;;;;;;;;;;;;;-4.79;67.78;102088.31;4968836;28;19938;-67
2023/02/08 08:40:13;;;;;;;;;;;;;;;-4.71;67.98;102091.22;4967728;28;20320;-66
2023/02/08 08:42:39;;;;;;;;;;;;;;;-4.72;68.14;102080.69;4965181;28;19934;-67
2023/02/08 08:45:05;;;;;;;;;;;;;;;-4.69;68.25;102083.09;4965455;28;19934;-66
2023/02/08 08:47:33;;;;;;;;;;;;;;;-4.66;68.11;102072.19;4964180;28;20599;-67
2023/02/08 08:49:58;;;;;;;;;;;;;;;-4.58;68.01;102075.13;4964895;28;19953;-67
2023/02/08 08:52:24;;;;;;;;;;;;;;;-4.44;67.80;102081.22;4967007;28;20385;-67
2023/02/08 08:54:50;;;;;;;;;;;;;;;-4.44;67.77;102082.03;4966560;28;19930;-66
2023/02/08 08:57:16;;;;;;;;;;;;;;;-4.43;67.58;102077.56;4966041;28;19930;-67
2023/02/08 08:59:41;;;;;;;;;;;;;;;-4.44;67.72;102079.38;4967454;28;20298;-67
2023/02/08 09:02:08;;;;;;;;;;;;;;;-4.44;67.97;102071.38;4984969;28;19984;-66
2023/02/08 09:04:36;;;;;;;;;;;;;;;-4.41;67.96;102059.59;4964338;28;19984;-66
2023/02/08 09:07:02;;;;;;;;;;;;;;;-4.29;67.87;102069.31;4986196;28;20036;-67
2023/02/08 09:09:27;;;;;;;;;;;;;;;-4.27;67.86;102059.34;4987182;28;20033;-66
2023/02/08 09:11:53;;;;;;;;;;;;;;;-4.16;67.86;102060.31;4986736;28;19934;-66
2023/02/08 09:14:19;;;;;;;;;;;;;;;-4.09;67.36;102052.66;4969282;28;19934;-66
2023/02/08 09:16:46;;;;;;;;;;;;;;;-4.07;67.43;102053.38;4970875;28;19972;-66
2023/02/08 09:19:13;;;;;;;;;;;;;;;-3.94;67.02;102056.78;4971265;28;20401;-66
2023/02/08 09:21:40;;;;;;;;;;;;;;;-3.91;67.16;102031.63;4970688;28;19940;-66
2023/02/08 09:24:05;;;;;;;;;;;;;;;-3.77;66.49;102034.03;4986197;28;20450;-66
2023/02/08 09:26:31;;;;;;;;;;;;;;;-3.67;66.57;102030.56;4985313;28;19930;-65
2023/02/08 09:28:57;;;;;;;;;;;;;;;-3.49;65.78;102025.53;4967069;28;20032;-66
2023/02/08 09:31:24;;;;;;;;;;;;;;;-3.45;65.97;102037.69;4986093;28;19937;-66
2023/02/08 09:33:50;;;;;;;;;;;;;;;-3.51;65.79;102015.00;4985594;28;20432;-66
2023/02/08 09:36:16;;;;;;;;;;;;;;;-3.35;65.84;102024.41;4965075;28;20472;-66
2023/02/08 09:38:44;;;;;;;;;;;;;;;-3.15;65.43;102023.59;4983327;28;19930;-66
2023/02/08 09:41:19;;;;;;;;;;;;;;;-3.16;65.04;102023.69;4984918;28;20040;-65
2023/02/08 09:43:50;;;;;;;;;;;;;;;-3.31;65.44;102025.84;4984559;28;20369;-66
2023/02/08 09:46:17;;;;;;;;;;;;;;;-3.39;66.02;102020.28;4984689;28;19930;-66
2023/02/08 09:48:44;;;;;;;;;;;;;;;-3.42;66.12;102008.03;4966204;28;19941;-66
2023/02/08 09:51:18;;;;;;;;;;;;;;;-3.50;66.33;102016.69;4966102;28;19934;-66
2023/02/08 09:53:49;;;;;;;;;;;;;;;-3.49;66.71;102013.03;4981416;28;19937;-66
2023/02/08 09:56:16;;;;;;;;;;;;;;;-3.51;66.67;102004.28;4969361;28;20000;-66
2023/02/08 09:58:43;;;;;;;;;;;;;;;-3.63;66.89;102008.81;4989889;28;19929;-66
2023/02/08 10:01:12;;;;;;;;;;;;;;;-3.69;67.53;101998.63;4968358;28;19930;-66
2023/02/08 10:03:40;;;;;;;;;;;;;;;-3.70;67.75;102002.28;4988014;28;19936;-66
2023/02/08 10:06:08;;;;;;;;;;;;;;;-3.76;67.88;102000.97;4972549;28;19930;-67
2023/02/08 10:08:34;;;;;;;;;;;;;;;-3.76;68.26;101994.75;4973331;28;20300;-67
2023/02/08 10:11:08;;;;;;;;;;;;;;;-3.67;68.07;101991.31;4971439;28;19929;-67
2023/02/08 10:13:43;;;;;;;;;;;;;;;-3.65;67.88;101994.72;4969493;28;19929;-66
2023/02/08 10:16:16;;;;;;;;;;;;;;;-3.62;67.97;101990.94;4986683;28;19976;-66
2023/02/08 10:18:45;;;;;;;;;;;;;;;-3.51;67.91;101977.53;4954304;28;19930;-66
2023/02/08 10:21:28;;;;;;;;;;;;;;;-3.37;67.04;101979.03;4969872;28;19929;-67
2023/02/08 10:24:04;;;;;;;;;;;;;;;-3.11;66.22;101972.47;4988658;28;19930;-67
2023/02/08 10:26:36;;;;;;;;;;;;;;;-2.95;65.71;101975.50;4986252;28;19930;-67
2023/02/08 10:29:20;;;;;;;;;;;;;;;-2.74;65.04;101972.81;4987341;28;19937;-67
2023/02/08 10:31:56;;;;;;;;;;;;;;;-2.21;63.24;101980.78;4969541;28;19925;-67
2023/02/08 10:34:29;;;;;;;;;;;;;;;-1.52;60.98;101968.28;4987913;28;20385;-67
2023/02/08 10:36:55;;;;;;;;;;;;;;;-1.35;60.04;101956.00;4968941;28;19934;-67
2023/02/08 10:39:23;;;;;;;;;;;;;;;-0.93;58.86;101941.34;4986167;28;20345;-67
2023/02/08 10:41:50;;;;;;;;;;;;;;;-0.65;57.43;101945.91;4986092;28;20434;-66
2023/02/08 10:44:22;;;;;;;;;;;;;;;-0.13;55.62;101936.47;4968221;28;19930;-66
2023/02/08 10:46:49;;;;;;;;;;;;;;;-0.12;55.66;101939.00;4968428;28;20468;-67
2023/02/08 10:49:19;;;;;;;;;;;;;;;0.36;54.30;101931.56;4987947;28;19930;-67
2023/02/08 10:51:45;;;;;;;;;;;;;;;0.74;53.10;101931.38;4987391;28;19930;-67
2023/02/08 10:54:12;;;;;;;;;;;;;;;0.89;52.45;101923.53;4986819;28;20419;-67
2023/02/08 10:56:44;;;;;;;;;;;;;;;0.24;53.77;101927.41;4987441;28;19930;-67
2023/02/08 10:59:17;;;;;;;;;;;;;;;-0.68;55.68;101936.34;4988125;28;19934;-66
2023/02/08 11:01:44;;;;;;;;;;;;;;;-1.51;58.13;101937.78;4967781;28;19930;-67
2023/02/08 11:04:11;;;;;;;;;;;;;;;-1.97;59.94;101936.63;4973619;28;19973;-67
2023/02/08 11:06:38;;;;;;;;;;;;;;;-2.39;60.99;101938.56;4987123;28;19929;-66
2023/02/08 11:09:03;;;;;;;;;;;;;;;-2.61;62.16;101953.81;4985420;28;19937;-66
2023/02/08 11:11:33;;;;;;;;;;;;;;;-2.81;62.95;101946.69;4971979;28;19980;-67
2023/02/08 11:14:05;;;;;;;;;;;;;;;-2.92;63.46;101942.28;4966646;28;19933;-67
2023/02/08 11:16:33;;;;;;;;;;;;;;;-2.99;63.95;101936.59;4953100;28;19973;-67
2023/02/08 11:19:00;;;;;;;;;;;;;;;-2.83;64.13;101951.34;4953689;28;20405;-66
2023/02/08 11:21:28;;;;;;;;;;;;;;;-2.81;63.74;101944.88;4986982;28;19930;-67
2023/02/08 11:23:55;;;;;;;;;;;;;;;-2.63;63.28;101930.84;4968139;28;19936;-66
2023/02/08 11:26:22;;;;;;;;;;;;;;;-2.65;62.87;101947.06;4990193;28;20448;-67
2023/02/08 11:28:58;;;;;;;;;;;;;;;-2.44;62.63;101940.78;4987556;28;19933;-67
2023/02/08 11:31:24;;;;;;;;;;;;;;;-2.33;62.37;101942.53;4986386;28;20324;-66
2023/02/08 11:34:01;;;;;;;;;;;;;;;-1.98;61.43;101941.16;4986793;28;19930;-67
2023/02/08 11:36:28;;;;;;;;;;;;;;;-1.86;60.33;101934.69;4984933;28;20057;-66
2023/02/08 11:38:54;;;;;;;;;;;;;;;-1.98;60.52;101933.13;4968955;28;19930;-66
2023/02/08 11:41:22;;;;;;;;;;;;;;;-1.82;60.67;101927.19;4986774;28;20458;-66
2023/02/08 11:43:54;;;;;;;;;;;;;;;-1.68;59.46;101928.63;4988972;28;19929;-66
2023/02/08 11:46:22;;;;;;;;;;;;;;;-1.75;59.57;101922.13;4987145;28;20156;-65
2023/02/08 11:48:50;;;;;;;;;;;;;;;-1.36;59.05;101921.25;4986785;28;19936;-66
2023/02/08 11:51:24;;;;;;;;;;;;;;;-0.65;57.17;101910.97;4963739;28;19936;-65
2023/02/08 11:53:50;;;;;;;;;;;;;;;0.04;55.34;101913.25;4970055;28;19930;-66
2023/02/08 11:56:17;;;;;;;;;;;;;;;0.39;54.10;101903.47;4987006;28;20242;-66
2023/02/08 11:58:54;;;;;;;;;;;;;;;1.09;52.73;101907.16;4969861;28;20012;-66
2023/02/08 12:01:20;;;;;;;;;;;;;;;0.83;52.04;101898.09;4966042;28;19942;-67
2023/02/08 12:03:49;;;;;;;;;;;;;;;0.14;53.22;101887.13;4963829;28;19937;-67
2023/02/08 12:06:21;;;;;;;;;;;;;;;-0.44;54.79;101884.72;4965897;28;19997;-66
2023/02/08 12:08:54;;;;;;;;;;;;;;;-0.65;55.99;101894.84;4966410;28;19930;-66
2023/02/08 12:11:23;;;;;;;;;;;;;;;-0.79;55.84;101885.47;4966648;28;19933;-66
2023/02/08 12:13:54;;;;;;;;;;;;;;;-1.33;57.12;101878.84;4966547;28;20508;-66
2023/02/08 12:16:33;;;;;;;;;;;;;;;-1.75;58.34;101892.59;4275604;28;9999928;-66
2023/02/08 12:19:08;;;;;;;;;;;;;;;-2.15;59.27;101889.06;4960584;28;19962;-66
2023/02/08 12:21:39;;;;;;;;;;;;;;;-2.51;60.75;101883.38;4936450;28;20204;-66
2023/02/08 12:24:11;;;;;;;;;;;;;;;-2.67;61.45;101876.69;4958899;28;19930;-66
2023/02/08 12:26:44;;;;;;;;;;;;;;;-2.64;61.88;101879.09;4960588;28;20037;-67
2023/02/08 12:29:22;;;;;;;;;;;;;;;-2.63;61.80;101869.25;4957825;28;19930;-67
2023/02/08 12:32:02;;;;;;;;;;;;;;;-2.53;61.89;101869.28;4961712;28;19936;-68
2023/02/08 12:34:35;;;;;;;;;;;;;;;-2.43;61.71;101859.41;4974104;28;20475;-67
2023/02/08 12:42:51;;;;;;;;;;;;;;;-2.52;62.18;101858.41;4964727;28;20060;-67
2023/02/08 12:45:39;;;;;;;;;;;;;;;-2.65;62.72;101857.81;4962349;28;19937;-67
2023/02/08 12:48:10;;;;;;;;;;;;;;;-2.75;63.11;101844.38;4964277;28;19930;-67
2023/02/08 12:50:40;;;;;;;;;;;;;;;-2.73;63.32;101842.44;4965953;28;19938;-67